sensor_id;sensor_type;location;lat;lon;timestamp;P1;durP1;ratioP1;P2;durP2;ratioP2
40997;SDS011;26740;45.944;12.480;2023-04-09T00:02:43;11.95;;;7.88;;
40997;SDS011;26740;45.944;12.480;2023-04-09T00:05:09;7.57;;;6.10;;
40997;SDS011;26740;45.944;12.480;2023-04-09T00:07:35;9.88;;;6.05;;
40997;SDS011;26740;45.944;12.480;2023-04-09T00:10:00;7.05;;;5.72;;
40997;SDS011;26740;45.944;12.480;2023-04-09T00:12:26;7.35;;;5.72;;
40997;SDS011;26740;45.944;12.480;2023-04-09T00:14:51;6.43;;;5.30;;
40997;SDS011;26740;45.944;12.480;2023-04-09T00:17:17;7.45;;;5.53;;
40997;SDS011;26740;45.944;12.480;2023-04-09T00:19:42;8.23;;;5.78;;
40997;SDS011;26740;45.944;12.480;2023-04-09T00:22:07;6.85;;;6.13;;
40997;SDS011;26740;45.944;12.480;2023-04-09T00:24:33;6.93;;;5.22;;
40997;SDS011;26740;45.944;12.480;2023-04-09T00:26:58;5.22;;;4.38;;
40997;SDS011;26740;45.944;12.480;2023-04-09T00:29:24;6.53;;;5.50;;
40997;SDS011;26740;45.944;12.480;2023-04-09T00:31:49;5.90;;;4.93;;
40997;SDS011;26740;45.944;12.480;2023-04-09T00:34:15;7.47;;;5.30;;
40997;SDS011;26740;45.944;12.480;2023-04-09T00:36:40;7.20;;;4.72;;
40997;SDS011;26740;45.944;12.480;2023-04-09T00:39:06;8.35;;;4.70;;
40997;SDS011;26740;45.944;12.480;2023-04-09T00:41:31;7.72;;;5.28;;
40997;SDS011;26740;45.944;12.480;2023-04-09T00:43:57;6.95;;;4.82;;
40997;SDS011;26740;45.944;12.480;2023-04-09T00:46:22;4.85;;;4.35;;
40997;SDS011;26740;45.944;12.480;2023-04-09T00:48:48;5.57;;;4.28;;
40997;SDS011;26740;45.944;12.480;2023-04-09T00:51:13;4.53;;;4.05;;
40997;SDS011;26740;45.944;12.480;2023-04-09T00:53:39;5.72;;;4.20;;
40997;SDS011;26740;45.944;12.480;2023-04-09T00:56:04;4.50;;;3.53;;
40997;SDS011;26740;45.944;12.480;2023-04-09T00:58:30;5.43;;;4.18;;
40997;SDS011;26740;45.944;12.480;2023-04-09T01:00:56;5.03;;;3.58;;
40997;SDS011;26740;45.944;12.480;2023-04-09T01:03:22;3.55;;;3.25;;
40997;SDS011;26740;45.944;12.480;2023-04-09T01:08:40;3.13;;;2.65;;
40997;SDS011;26740;45.944;12.480;2023-04-09T01:11:12;4.93;;;3.38;;
40997;SDS011;26740;45.944;12.480;2023-04-09T01:16:17;4.20;;;3.17;;
40997;SDS011;26740;45.944;12.480;2023-04-09T01:18:47;3.35;;;2.90;;
40997;SDS011;26740;45.944;12.480;2023-04-09T01:21:18;4.43;;;2.72;;
40997;SDS011;26740;45.944;12.480;2023-04-09T01:28:52;2.53;;;2.25;;
40997;SDS011;26740;45.944;12.480;2023-04-09T01:31:18;2.90;;;2.40;;
40997;SDS011;26740;45.944;12.480;2023-04-09T01:33:44;2.03;;;1.30;;
40997;SDS011;26740;45.944;12.480;2023-04-09T01:36:10;3.22;;;1.92;;
40997;SDS011;26740;45.944;12.480;2023-04-09T01:38:40;1.83;;;1.35;;
40997;SDS011;26740;45.944;12.480;2023-04-09T01:41:06;1.77;;;1.33;;
40997;SDS011;26740;45.944;12.480;2023-04-09T01:43:32;1.30;;;1.05;;
40997;SDS011;26740;45.944;12.480;2023-04-09T01:46:01;2.38;;;1.17;;
40997;SDS011;26740;45.944;12.480;2023-04-09T01:48:30;1.08;;;0.93;;
40997;SDS011;26740;45.944;12.480;2023-04-09T01:50:56;1.40;;;0.77;;
40997;SDS011;26740;45.944;12.480;2023-04-09T01:53:22;3.42;;;0.88;;
40997;SDS011;26740;45.944;12.480;2023-04-09T01:55:48;1.45;;;0.60;;
40997;SDS011;26740;45.944;12.480;2023-04-09T01:58:13;1.23;;;0.80;;
40997;SDS011;26740;45.944;12.480;2023-04-09T02:00:39;0.80;;;0.60;;
40997;SDS011;26740;45.944;12.480;2023-04-09T02:03:16;1.08;;;0.55;;
40997;SDS011;26740;45.944;12.480;2023-04-09T02:05:43;0.60;;;0.30;;
40997;SDS011;26740;45.944;12.480;2023-04-09T02:08:11;0.90;;;0.50;;
40997;SDS011;26740;45.944;12.480;2023-04-09T02:10:37;0.55;;;0.50;;
40997;SDS011;26740;45.944;12.480;2023-04-09T02:13:03;0.38;;;0.30;;
40997;SDS011;26740;45.944;12.480;2023-04-09T02:15:30;0.30;;;0.20;;
40997;SDS011;26740;45.944;12.480;2023-04-09T02:17:56;0.75;;;0.40;;
40997;SDS011;26740;45.944;12.480;2023-04-09T02:20:21;0.40;;;0.30;;
40997;SDS011;26740;45.944;12.480;2023-04-09T02:22:47;0.50;;;0.30;;
40997;SDS011;26740;45.944;12.480;2023-04-09T02:25:13;0.88;;;0.40;;
40997;SDS011;26740;45.944;12.480;2023-04-09T02:27:39;0.50;;;0.30;;
40997;SDS011;26740;45.944;12.480;2023-04-09T02:30:05;0.47;;;0.28;;
40997;SDS011;26740;45.944;12.480;2023-04-09T02:32:30;0.40;;;0.20;;
40997;SDS011;26740;45.944;12.480;2023-04-09T02:34:56;0.40;;;0.30;;
40997;SDS011;26740;45.944;12.480;2023-04-09T02:37:21;0.73;;;0.30;;
40997;SDS011;26740;45.944;12.480;2023-04-09T02:39:47;1.33;;;0.30;;
40997;SDS011;26740;45.944;12.480;2023-04-09T02:42:12;0.60;;;0.38;;
40997;SDS011;26740;45.944;12.480;2023-04-09T02:44:38;0.30;;;0.20;;
40997;SDS011;26740;45.944;12.480;2023-04-09T02:47:03;0.50;;;0.28;;
40997;SDS011;26740;45.944;12.480;2023-04-09T02:49:29;0.57;;;0.30;;
40997;SDS011;26740;45.944;12.480;2023-04-09T02:51:54;0.55;;;0.30;;
40997;SDS011;26740;45.944;12.480;2023-04-09T02:54:20;0.45;;;0.30;;
40997;SDS011;26740;45.944;12.480;2023-04-09T02:56:45;0.35;;;0.20;;
40997;SDS011;26740;45.944;12.480;2023-04-09T02:59:11;2.35;;;0.50;;
40997;SDS011;26740;45.944;12.480;2023-04-09T03:01:36;0.60;;;0.47;;
40997;SDS011;26740;45.944;12.480;2023-04-09T03:04:02;0.55;;;0.30;;
40997;SDS011;26740;45.944;12.480;2023-04-09T03:06:27;0.60;;;0.30;;
40997;SDS011;26740;45.944;12.480;2023-04-09T03:08:53;0.40;;;0.30;;
40997;SDS011;26740;45.944;12.480;2023-04-09T03:11:18;0.50;;;0.30;;
40997;SDS011;26740;45.944;12.480;2023-04-09T03:13:43;0.73;;;0.43;;
40997;SDS011;26740;45.944;12.480;2023-04-09T03:16:09;0.50;;;0.30;;
40997;SDS011;26740;45.944;12.480;2023-04-09T03:18:35;0.63;;;0.35;;
40997;SDS011;26740;45.944;12.480;2023-04-09T03:21:03;1.88;;;0.40;;
40997;SDS011;26740;45.944;12.480;2023-04-09T03:23:30;0.50;;;0.30;;
40997;SDS011;26740;45.944;12.480;2023-04-09T03:26:05;0.80;;;0.50;;
40997;SDS011;26740;45.944;12.480;2023-04-09T03:28:31;0.88;;;0.40;;
40997;SDS011;26740;45.944;12.480;2023-04-09T03:30:57;1.00;;;0.50;;
40997;SDS011;26740;45.944;12.480;2023-04-09T03:33:22;0.50;;;0.30;;
40997;SDS011;26740;45.944;12.480;2023-04-09T03:35:48;0.40;;;0.20;;
40997;SDS011;26740;45.944;12.480;2023-04-09T03:38:14;0.60;;;0.40;;
40997;SDS011;26740;45.944;12.480;2023-04-09T03:40:39;3.05;;;0.30;;
40997;SDS011;26740;45.944;12.480;2023-04-09T03:43:06;0.60;;;0.30;;
40997;SDS011;26740;45.944;12.480;2023-04-09T03:45:32;0.60;;;0.40;;
40997;SDS011;26740;45.944;12.480;2023-04-09T03:47:57;0.75;;;0.40;;
40997;SDS011;26740;45.944;12.480;2023-04-09T03:50:22;2.05;;;0.50;;
40997;SDS011;26740;45.944;12.480;2023-04-09T03:52:48;0.55;;;0.40;;
40997;SDS011;26740;45.944;12.480;2023-04-09T03:55:13;0.98;;;0.30;;
40997;SDS011;26740;45.944;12.480;2023-04-09T04:00:42;0.45;;;0.20;;
40997;SDS011;26740;45.944;12.480;2023-04-09T04:03:08;0.50;;;0.30;;
40997;SDS011;26740;45.944;12.480;2023-04-09T04:05:35;1.40;;;0.28;;
40997;SDS011;26740;45.944;12.480;2023-04-09T04:08:00;1.02;;;0.40;;
40997;SDS011;26740;45.944;12.480;2023-04-09T04:10:26;0.43;;;0.20;;
40997;SDS011;26740;45.944;12.480;2023-04-09T04:12:51;0.70;;;0.32;;
40997;SDS011;26740;45.944;12.480;2023-04-09T04:15:17;0.50;;;0.30;;
40997;SDS011;26740;45.944;12.480;2023-04-09T04:17:44;0.40;;;0.30;;
40997;SDS011;26740;45.944;12.480;2023-04-09T04:20:10;1.02;;;0.40;;
40997;SDS011;26740;45.944;12.480;2023-04-09T04:22:35;0.65;;;0.50;;
40997;SDS011;26740;45.944;12.480;2023-04-09T04:25:01;0.82;;;0.52;;
40997;SDS011;26740;45.944;12.480;2023-04-09T04:27:27;0.73;;;0.30;;
40997;SDS011;26740;45.944;12.480;2023-04-09T04:29:53;0.75;;;0.50;;
40997;SDS011;26740;45.944;12.480;2023-04-09T04:32:18;0.38;;;0.28;;
40997;SDS011;26740;45.944;12.480;2023-04-09T04:34:47;0.50;;;0.30;;
40997;SDS011;26740;45.944;12.480;2023-04-09T04:37:13;2.97;;;0.50;;
40997;SDS011;26740;45.944;12.480;2023-04-09T04:39:38;1.05;;;0.63;;
40997;SDS011;26740;45.944;12.480;2023-04-09T04:42:03;0.70;;;0.70;;
40997;SDS011;26740;45.944;12.480;2023-04-09T04:44:30;0.40;;;0.30;;
40997;SDS011;26740;45.944;12.480;2023-04-09T04:46:55;0.50;;;0.38;;
40997;SDS011;26740;45.944;12.480;2023-04-09T04:49:21;1.50;;;0.30;;
40997;SDS011;26740;45.944;12.480;2023-04-09T04:51:46;0.65;;;0.40;;
40997;SDS011;26740;45.944;12.480;2023-04-09T04:54:11;0.52;;;0.35;;
40997;SDS011;26740;45.944;12.480;2023-04-09T04:56:37;0.95;;;0.50;;
40997;SDS011;26740;45.944;12.480;2023-04-09T04:59:02;0.73;;;0.35;;
40997;SDS011;26740;45.944;12.480;2023-04-09T05:01:28;2.20;;;0.63;;
40997;SDS011;26740;45.944;12.480;2023-04-09T05:03:53;0.55;;;0.32;;
40997;SDS011;26740;45.944;12.480;2023-04-09T05:06:19;0.60;;;0.43;;
40997;SDS011;26740;45.944;12.480;2023-04-09T05:08:44;5.78;;;0.43;;
40997;SDS011;26740;45.944;12.480;2023-04-09T05:11:10;1.88;;;1.00;;
40997;SDS011;26740;45.944;12.480;2023-04-09T05:13:36;1.55;;;0.50;;
40997;SDS011;26740;45.944;12.480;2023-04-09T05:16:02;0.93;;;0.52;;
40997;SDS011;26740;45.944;12.480;2023-04-09T05:18:28;1.25;;;0.45;;
40997;SDS011;26740;45.944;12.480;2023-04-09T05:20:53;1.30;;;0.65;;
40997;SDS011;26740;45.944;12.480;2023-04-09T05:23:18;0.43;;;0.30;;
40997;SDS011;26740;45.944;12.480;2023-04-09T05:25:44;1.70;;;0.40;;
40997;SDS011;26740;45.944;12.480;2023-04-09T05:28:09;0.75;;;0.22;;
40997;SDS011;26740;45.944;12.480;2023-04-09T05:30:38;1.23;;;0.63;;
40997;SDS011;26740;45.944;12.480;2023-04-09T05:33:03;1.05;;;0.50;;
40997;SDS011;26740;45.944;12.480;2023-04-09T05:35:29;0.90;;;0.55;;
40997;SDS011;26740;45.944;12.480;2023-04-09T05:37:54;0.73;;;0.35;;
40997;SDS011;26740;45.944;12.480;2023-04-09T05:40:20;1.45;;;0.35;;
40997;SDS011;26740;45.944;12.480;2023-04-09T05:42:45;4.13;;;0.22;;
40997;SDS011;26740;45.944;12.480;2023-04-09T05:45:11;1.88;;;0.25;;
40997;SDS011;26740;45.944;12.480;2023-04-09T05:47:36;1.13;;;0.30;;
40997;SDS011;26740;45.944;12.480;2023-04-09T05:50:01;0.77;;;0.30;;
40997;SDS011;26740;45.944;12.480;2023-04-09T05:52:27;0.85;;;0.35;;
40997;SDS011;26740;45.944;12.480;2023-04-09T05:54:52;1.15;;;0.50;;
40997;SDS011;26740;45.944;12.480;2023-04-09T05:57:18;0.77;;;0.30;;
40997;SDS011;26740;45.944;12.480;2023-04-09T05:59:43;0.55;;;0.30;;
40997;SDS011;26740;45.944;12.480;2023-04-09T06:02:09;0.63;;;0.30;;
40997;SDS011;26740;45.944;12.480;2023-04-09T06:04:34;0.75;;;0.30;;
40997;SDS011;26740;45.944;12.480;2023-04-09T06:07:01;0.43;;;0.28;;
40997;SDS011;26740;45.944;12.480;2023-04-09T06:09:26;1.73;;;1.60;;
40997;SDS011;26740;45.944;12.480;2023-04-09T06:11:52;1.20;;;0.50;;
40997;SDS011;26740;45.944;12.480;2023-04-09T06:14:17;0.50;;;0.40;;
40997;SDS011;26740;45.944;12.480;2023-04-09T06:16:43;0.50;;;0.40;;
40997;SDS011;26740;45.944;12.480;2023-04-09T06:19:08;2.80;;;0.30;;
40997;SDS011;26740;45.944;12.480;2023-04-09T06:21:34;0.50;;;0.30;;
40997;SDS011;26740;45.944;12.480;2023-04-09T06:23:59;0.38;;;0.20;;
40997;SDS011;26740;45.944;12.480;2023-04-09T06:26:25;0.57;;;0.28;;
40997;SDS011;26740;45.944;12.480;2023-04-09T06:28:51;0.40;;;0.30;;
40997;SDS011;26740;45.944;12.480;2023-04-09T06:31:16;1.35;;;0.40;;
40997;SDS011;26740;45.944;12.480;2023-04-09T06:33:42;0.50;;;0.30;;
40997;SDS011;26740;45.944;12.480;2023-04-09T06:36:07;0.20;;;0.20;;
40997;SDS011;26740;45.944;12.480;2023-04-09T06:38:33;1.23;;;0.40;;
40997;SDS011;26740;45.944;12.480;2023-04-09T06:40:58;0.57;;;0.40;;
40997;SDS011;26740;45.944;12.480;2023-04-09T06:43:24;0.40;;;0.20;;
40997;SDS011;26740;45.944;12.480;2023-04-09T06:45:49;0.47;;;0.30;;
40997;SDS011;26740;45.944;12.480;2023-04-09T06:48:15;0.75;;;0.32;;
40997;SDS011;26740;45.944;12.480;2023-04-09T06:50:41;3.42;;;0.40;;
40997;SDS011;26740;45.944;12.480;2023-04-09T06:53:06;0.65;;;0.45;;
40997;SDS011;26740;45.944;12.480;2023-04-09T06:55:32;1.13;;;0.40;;
40997;SDS011;26740;45.944;12.480;2023-04-09T06:57:58;0.70;;;0.50;;
40997;SDS011;26740;45.944;12.480;2023-04-09T07:00:23;0.52;;;0.20;;
40997;SDS011;26740;45.944;12.480;2023-04-09T07:02:49;0.70;;;0.30;;
40997;SDS011;26740;45.944;12.480;2023-04-09T07:05:15;0.68;;;0.30;;
40997;SDS011;26740;45.944;12.480;2023-04-09T07:07:40;0.60;;;0.40;;
40997;SDS011;26740;45.944;12.480;2023-04-09T07:10:06;0.60;;;0.40;;
40997;SDS011;26740;45.944;12.480;2023-04-09T07:12:32;2.85;;;0.50;;
40997;SDS011;26740;45.944;12.480;2023-04-09T07:14:59;0.60;;;0.32;;
40997;SDS011;26740;45.944;12.480;2023-04-09T07:17:25;0.80;;;0.50;;
40997;SDS011;26740;45.944;12.480;2023-04-09T07:19:50;0.50;;;0.30;;
40997;SDS011;26740;45.944;12.480;2023-04-09T07:22:16;0.68;;;0.50;;
40997;SDS011;26740;45.944;12.480;2023-04-09T07:24:42;0.50;;;0.32;;
40997;SDS011;26740;45.944;12.480;2023-04-09T07:27:07;0.90;;;0.40;;
40997;SDS011;26740;45.944;12.480;2023-04-09T07:29:34;0.93;;;0.55;;
40997;SDS011;26740;45.944;12.480;2023-04-09T07:31:59;0.80;;;0.50;;
40997;SDS011;26740;45.944;12.480;2023-04-09T07:34:25;0.70;;;0.50;;
40997;SDS011;26740;45.944;12.480;2023-04-09T07:36:51;0.70;;;0.50;;
40997;SDS011;26740;45.944;12.480;2023-04-09T07:39:17;0.60;;;0.45;;
40997;SDS011;26740;45.944;12.480;2023-04-09T07:41:43;0.70;;;0.50;;
40997;SDS011;26740;45.944;12.480;2023-04-09T07:44:09;0.50;;;0.40;;
40997;SDS011;26740;45.944;12.480;2023-04-09T07:46:34;0.65;;;0.35;;
40997;SDS011;26740;45.944;12.480;2023-04-09T07:49:00;0.90;;;0.50;;
40997;SDS011;26740;45.944;12.480;2023-04-09T07:51:25;0.80;;;0.68;;
40997;SDS011;26740;45.944;12.480;2023-04-09T07:53:51;0.80;;;0.60;;
40997;SDS011;26740;45.944;12.480;2023-04-09T07:56:17;0.80;;;0.55;;
40997;SDS011;26740;45.944;12.480;2023-04-09T08:01:45;0.55;;;0.40;;
40997;SDS011;26740;45.944;12.480;2023-04-09T08:04:10;0.60;;;0.30;;
40997;SDS011;26740;45.944;12.480;2023-04-09T08:06:37;1.02;;;0.60;;
40997;SDS011;26740;45.944;12.480;2023-04-09T08:09:02;0.40;;;0.40;;
40997;SDS011;26740;45.944;12.480;2023-04-09T08:11:28;0.50;;;0.40;;
40997;SDS011;26740;45.944;12.480;2023-04-09T08:13:53;0.50;;;0.40;;
40997;SDS011;26740;45.944;12.480;2023-04-09T08:16:19;0.60;;;0.40;;
40997;SDS011;26740;45.944;12.480;2023-04-09T08:18:52;0.43;;;0.35;;
40997;SDS011;26740;45.944;12.480;2023-04-09T08:21:17;0.88;;;0.45;;
40997;SDS011;26740;45.944;12.480;2023-04-09T08:23:43;1.08;;;0.50;;
40997;SDS011;26740;45.944;12.480;2023-04-09T08:26:08;0.77;;;0.60;;
40997;SDS011;26740;45.944;12.480;2023-04-09T08:28:34;0.85;;;0.30;;
40997;SDS011;26740;45.944;12.480;2023-04-09T08:30:59;1.05;;;0.50;;
40997;SDS011;26740;45.944;12.480;2023-04-09T08:33:25;0.60;;;0.50;;
40997;SDS011;26740;45.944;12.480;2023-04-09T08:35:51;0.70;;;0.50;;
40997;SDS011;26740;45.944;12.480;2023-04-09T08:38:17;0.57;;;0.43;;
40997;SDS011;26740;45.944;12.480;2023-04-09T08:40:43;0.85;;;0.40;;
40997;SDS011;26740;45.944;12.480;2023-04-09T08:43:08;0.68;;;0.40;;
40997;SDS011;26740;45.944;12.480;2023-04-09T08:45:34;0.68;;;0.47;;
40997;SDS011;26740;45.944;12.480;2023-04-09T08:48:01;0.50;;;0.40;;
40997;SDS011;26740;45.944;12.480;2023-04-09T08:50:31;1.02;;;0.45;;
40997;SDS011;26740;45.944;12.480;2023-04-09T08:55:23;0.60;;;0.50;;
40997;SDS011;26740;45.944;12.480;2023-04-09T08:57:48;0.77;;;0.60;;
40997;SDS011;26740;45.944;12.480;2023-04-09T09:00:14;0.63;;;0.60;;
40997;SDS011;26740;45.944;12.480;2023-04-09T09:05:56;0.90;;;0.30;;
40997;SDS011;26740;45.944;12.480;2023-04-09T09:08:22;0.63;;;0.57;;
40997;SDS011;26740;45.944;12.480;2023-04-09T09:10:48;0.70;;;0.50;;
40997;SDS011;26740;45.944;12.480;2023-04-09T09:15:41;0.38;;;0.30;;
40997;SDS011;26740;45.944;12.480;2023-04-09T09:18:07;0.80;;;0.55;;
40997;SDS011;26740;45.944;12.480;2023-04-09T09:20:33;0.52;;;0.45;;
40997;SDS011;26740;45.944;12.480;2023-04-09T09:22:58;1.35;;;0.52;;
40997;SDS011;26740;45.944;12.480;2023-04-09T09:25:24;0.60;;;0.60;;
40997;SDS011;26740;45.944;12.480;2023-04-09T09:27:50;0.50;;;0.30;;
40997;SDS011;26740;45.944;12.480;2023-04-09T09:30:19;0.60;;;0.40;;
40997;SDS011;26740;45.944;12.480;2023-04-09T09:32:45;2.58;;;0.45;;
40997;SDS011;26740;45.944;12.480;2023-04-09T09:35:11;1.10;;;0.47;;
40997;SDS011;26740;45.944;12.480;2023-04-09T09:37:37;1.52;;;1.00;;
40997;SDS011;26740;45.944;12.480;2023-04-09T09:40:02;2.20;;;0.80;;
40997;SDS011;26740;45.944;12.480;2023-04-09T09:42:28;0.95;;;0.82;;
40997;SDS011;26740;45.944;12.480;2023-04-09T09:44:54;1.00;;;0.73;;
40997;SDS011;26740;45.944;12.480;2023-04-09T09:47:20;1.17;;;0.80;;
40997;SDS011;26740;45.944;12.480;2023-04-09T09:49:49;0.95;;;0.70;;
40997;SDS011;26740;45.944;12.480;2023-04-09T09:52:15;1.10;;;0.73;;
40997;SDS011;26740;45.944;12.480;2023-04-09T09:54:42;0.55;;;0.45;;
40997;SDS011;26740;45.944;12.480;2023-04-09T09:57:08;0.95;;;0.85;;
40997;SDS011;26740;45.944;12.480;2023-04-09T09:59:37;1.55;;;0.77;;
40997;SDS011;26740;45.944;12.480;2023-04-09T10:02:05;1.85;;;1.17;;
40997;SDS011;26740;45.944;12.480;2023-04-09T10:04:33;2.03;;;1.15;;
40997;SDS011;26740;45.944;12.480;2023-04-09T10:07:03;1.20;;;0.80;;
40997;SDS011;26740;45.944;12.480;2023-04-09T10:09:29;2.28;;;1.30;;
40997;SDS011;26740;45.944;12.480;2023-04-09T10:11:56;2.25;;;1.00;;
40997;SDS011;26740;45.944;12.480;2023-04-09T10:14:23;1.15;;;1.05;;
40997;SDS011;26740;45.944;12.480;2023-04-09T10:16:50;2.25;;;1.00;;
40997;SDS011;26740;45.944;12.480;2023-04-09T10:19:16;2.00;;;1.30;;
40997;SDS011;26740;45.944;12.480;2023-04-09T10:21:44;1.52;;;0.75;;
40997;SDS011;26740;45.944;12.480;2023-04-09T10:24:12;4.88;;;0.95;;
40997;SDS011;26740;45.944;12.480;2023-04-09T10:26:41;6.65;;;0.90;;
40997;SDS011;26740;45.944;12.480;2023-04-09T10:34:20;0.93;;;0.70;;
40997;SDS011;26740;45.944;12.480;2023-04-09T10:36:48;1.52;;;1.00;;
40997;SDS011;26740;45.944;12.480;2023-04-09T10:39:15;0.90;;;0.77;;
40997;SDS011;26740;45.944;12.480;2023-04-09T10:41:41;1.92;;;1.10;;
40997;SDS011;26740;45.944;12.480;2023-04-09T10:44:26;10.68;;;6.95;;
40997;SDS011;26740;45.944;12.480;2023-04-09T10:46:52;8.98;;;5.60;;
40997;SDS011;26740;45.944;12.480;2023-04-09T10:49:18;0.90;;;0.68;;
40997;SDS011;26740;45.944;12.480;2023-04-09T10:52:00;4.72;;;2.35;;
40997;SDS011;26740;45.944;12.480;2023-04-09T10:59:39;1.90;;;0.68;;
40997;SDS011;26740;45.944;12.480;2023-04-09T11:02:09;2.33;;;1.58;;
40997;SDS011;26740;45.944;12.480;2023-04-09T11:07:06;5.80;;;3.15;;
40997;SDS011;26740;45.944;12.480;2023-04-09T11:09:34;1.10;;;0.65;;
40997;SDS011;26740;45.944;12.480;2023-04-09T11:12:00;1.05;;;0.40;;
40997;SDS011;26740;45.944;12.480;2023-04-09T11:14:26;0.95;;;0.50;;
40997;SDS011;26740;45.944;12.480;2023-04-09T11:16:51;0.47;;;0.30;;
40997;SDS011;26740;45.944;12.480;2023-04-09T11:19:17;0.40;;;0.20;;
40997;SDS011;26740;45.944;12.480;2023-04-09T11:21:43;2.25;;;0.35;;
40997;SDS011;26740;45.944;12.480;2023-04-09T11:24:11;0.60;;;0.30;;
40997;SDS011;26740;45.944;12.480;2023-04-09T11:26:37;1.05;;;0.40;;
40997;SDS011;26740;45.944;12.480;2023-04-09T11:29:06;0.20;;;0.20;;
40997;SDS011;26740;45.944;12.480;2023-04-09T11:31:33;1.38;;;0.20;;
40997;SDS011;26740;45.944;12.480;2023-04-09T11:33:58;0.17;;;0.10;;
40997;SDS011;26740;45.944;12.480;2023-04-09T11:36:24;0.22;;;0.20;;
40997;SDS011;26740;45.944;12.480;2023-04-09T11:38:51;0.40;;;0.20;;
40997;SDS011;26740;45.944;12.480;2023-04-09T11:41:31;0.40;;;0.20;;
40997;SDS011;26740;45.944;12.480;2023-04-09T11:43:56;0.40;;;0.22;;
40997;SDS011;26740;45.944;12.480;2023-04-09T11:46:22;0.50;;;0.40;;
40997;SDS011;26740;45.944;12.480;2023-04-09T11:48:50;2.83;;;1.75;;
40997;SDS011;26740;45.944;12.480;2023-04-09T11:51:16;1.48;;;1.15;;
40997;SDS011;26740;45.944;12.480;2023-04-09T11:53:42;1.60;;;1.25;;
40997;SDS011;26740;45.944;12.480;2023-04-09T11:56:09;2.00;;;1.67;;
40997;SDS011;26740;45.944;12.480;2023-04-09T12:01:37;1.58;;;1.40;;
40997;SDS011;26740;45.944;12.480;2023-04-09T12:04:03;1.20;;;1.10;;
40997;SDS011;26740;45.944;12.480;2023-04-09T12:06:30;1.30;;;1.00;;
40997;SDS011;26740;45.944;12.480;2023-04-09T12:08:56;1.50;;;1.13;;
40997;SDS011;26740;45.944;12.480;2023-04-09T12:11:26;1.58;;;1.00;;
40997;SDS011;26740;45.944;12.480;2023-04-09T12:14:01;1.58;;;0.82;;
40997;SDS011;26740;45.944;12.480;2023-04-09T12:16:30;1.30;;;1.02;;
40997;SDS011;26740;45.944;12.480;2023-04-09T12:19:00;1.17;;;0.93;;
40997;SDS011;26740;45.944;12.480;2023-04-09T12:21:34;0.67;;;0.67;;
40997;SDS011;26740;45.944;12.480;2023-04-09T12:24:09;1.92;;;0.90;;
40997;SDS011;26740;45.944;12.480;2023-04-09T12:26:34;0.90;;;0.70;;
40997;SDS011;26740;45.944;12.480;2023-04-09T12:29:00;1.20;;;1.00;;
40997;SDS011;26740;45.944;12.480;2023-04-09T12:31:25;1.05;;;0.73;;
40997;SDS011;26740;45.944;12.480;2023-04-09T12:33:50;1.08;;;0.73;;
40997;SDS011;26740;45.944;12.480;2023-04-09T12:36:16;1.60;;;0.45;;
40997;SDS011;26740;45.944;12.480;2023-04-09T12:38:41;0.80;;;0.57;;
40997;SDS011;26740;45.944;12.480;2023-04-09T12:41:07;1.35;;;0.40;;
40997;SDS011;26740;45.944;12.480;2023-04-09T12:43:33;0.50;;;0.30;;
40997;SDS011;26740;45.944;12.480;2023-04-09T12:45:59;1.10;;;0.60;;
40997;SDS011;26740;45.944;12.480;2023-04-09T12:48:25;1.15;;;0.52;;
40997;SDS011;26740;45.944;12.480;2023-04-09T12:50:50;0.98;;;0.57;;
40997;SDS011;26740;45.944;12.480;2023-04-09T12:53:16;1.17;;;0.55;;
40997;SDS011;26740;45.944;12.480;2023-04-09T12:55:41;0.63;;;0.40;;
40997;SDS011;26740;45.944;12.480;2023-04-09T12:58:07;1.02;;;0.70;;
40997;SDS011;26740;45.944;12.480;2023-04-09T13:00:33;0.50;;;0.40;;
40997;SDS011;26740;45.944;12.480;2023-04-09T13:02:59;0.80;;;0.68;;
40997;SDS011;26740;45.944;12.480;2023-04-09T13:05:24;0.60;;;0.50;;
40997;SDS011;26740;45.944;12.480;2023-04-09T13:07:50;1.08;;;0.60;;
40997;SDS011;26740;45.944;12.480;2023-04-09T13:10:15;1.05;;;0.50;;
40997;SDS011;26740;45.944;12.480;2023-04-09T13:12:41;0.68;;;0.32;;
40997;SDS011;26740;45.944;12.480;2023-04-09T13:15:06;0.70;;;0.50;;
40997;SDS011;26740;45.944;12.480;2023-04-09T13:17:32;0.85;;;0.38;;
40997;SDS011;26740;45.944;12.480;2023-04-09T13:19:57;2.28;;;0.50;;
40997;SDS011;26740;45.944;12.480;2023-04-09T13:22:23;0.73;;;0.52;;
40997;SDS011;26740;45.944;12.480;2023-04-09T13:24:48;1.13;;;0.60;;
40997;SDS011;26740;45.944;12.480;2023-04-09T13:27:14;1.70;;;1.13;;
40997;SDS011;26740;45.944;12.480;2023-04-09T13:29:40;0.70;;;0.50;;
40997;SDS011;26740;45.944;12.480;2023-04-09T13:32:06;2.00;;;0.63;;
40997;SDS011;26740;45.944;12.480;2023-04-09T13:34:32;0.95;;;0.50;;
40997;SDS011;26740;45.944;12.480;2023-04-09T13:36:59;0.88;;;0.52;;
40997;SDS011;26740;45.944;12.480;2023-04-09T13:39:25;1.38;;;0.65;;
40997;SDS011;26740;45.944;12.480;2023-04-09T13:41:50;0.80;;;0.60;;
40997;SDS011;26740;45.944;12.480;2023-04-09T13:44:15;0.60;;;0.40;;
40997;SDS011;26740;45.944;12.480;2023-04-09T13:46:41;0.95;;;0.60;;
40997;SDS011;26740;45.944;12.480;2023-04-09T13:49:06;1.25;;;0.40;;
40997;SDS011;26740;45.944;12.480;2023-04-09T13:51:32;0.70;;;0.40;;
40997;SDS011;26740;45.944;12.480;2023-04-09T13:53:57;0.85;;;0.50;;
40997;SDS011;26740;45.944;12.480;2023-04-09T13:56:23;2.85;;;0.40;;
40997;SDS011;26740;45.944;12.480;2023-04-09T13:58:49;0.50;;;0.30;;
40997;SDS011;26740;45.944;12.480;2023-04-09T14:01:14;1.90;;;1.08;;
40997;SDS011;26740;45.944;12.480;2023-04-09T14:03:40;1.95;;;1.25;;
40997;SDS011;26740;45.944;12.480;2023-04-09T14:06:07;1.02;;;0.47;;
40997;SDS011;26740;45.944;12.480;2023-04-09T14:08:33;0.65;;;0.40;;
40997;SDS011;26740;45.944;12.480;2023-04-09T14:10:58;1.63;;;0.68;;
40997;SDS011;26740;45.944;12.480;2023-04-09T14:13:24;1.60;;;0.70;;
40997;SDS011;26740;45.944;12.480;2023-04-09T14:15:49;1.08;;;0.57;;
40997;SDS011;26740;45.944;12.480;2023-04-09T14:18:15;0.82;;;0.47;;
40997;SDS011;26740;45.944;12.480;2023-04-09T14:20:40;1.13;;;0.43;;
40997;SDS011;26740;45.944;12.480;2023-04-09T14:23:06;0.77;;;0.55;;
40997;SDS011;26740;45.944;12.480;2023-04-09T14:25:31;0.70;;;0.50;;
40997;SDS011;26740;45.944;12.480;2023-04-09T14:27:57;0.80;;;0.60;;
40997;SDS011;26740;45.944;12.480;2023-04-09T14:30:23;0.65;;;0.55;;
40997;SDS011;26740;45.944;12.480;2023-04-09T14:32:48;1.40;;;0.80;;
40997;SDS011;26740;45.944;12.480;2023-04-09T14:35:14;1.05;;;0.57;;
40997;SDS011;26740;45.944;12.480;2023-04-09T14:37:40;1.73;;;1.27;;
40997;SDS011;26740;45.944;12.480;2023-04-09T14:40:06;1.10;;;0.80;;
40997;SDS011;26740;45.944;12.480;2023-04-09T14:42:32;1.42;;;0.63;;
40997;SDS011;26740;45.944;12.480;2023-04-09T14:44:58;3.55;;;1.00;;
40997;SDS011;26740;45.944;12.480;2023-04-09T14:47:23;2.60;;;0.98;;
40997;SDS011;26740;45.944;12.480;2023-04-09T14:49:48;1.92;;;1.30;;
40997;SDS011;26740;45.944;12.480;2023-04-09T14:52:14;1.02;;;0.90;;
40997;SDS011;26740;45.944;12.480;2023-04-09T14:54:40;3.15;;;1.00;;
40997;SDS011;26740;45.944;12.480;2023-04-09T14:57:05;2.08;;;0.80;;
40997;SDS011;26740;45.944;12.480;2023-04-09T14:59:31;1.02;;;0.80;;
40997;SDS011;26740;45.944;12.480;2023-04-09T15:01:56;0.95;;;0.70;;
40997;SDS011;26740;45.944;12.480;2023-04-09T15:04:22;1.40;;;0.80;;
40997;SDS011;26740;45.944;12.480;2023-04-09T15:06:47;1.00;;;0.75;;
40997;SDS011;26740;45.944;12.480;2023-04-09T15:09:13;1.77;;;1.35;;